sensor_id;sensor_type;location;lat;lon;timestamp;temperature;humidity
44435;DHT22;30138;20.964;105.830;2023-07-20T00:04:30;25.70;53.10
44435;DHT22;30138;20.964;105.830;2023-07-20T00:09:40;25.70;56.40
44435;DHT22;30138;20.964;105.830;2023-07-20T00:14:48;25.60;52.90
44435;DHT22;30138;20.964;105.830;2023-07-20T00:19:58;25.70;56.50
44435;DHT22;30138;20.964;105.830;2023-07-20T00:25:09;25.60;52.90
44435;DHT22;30138;20.964;105.830;2023-07-20T00:30:18;25.60;56.30
44435;DHT22;30138;20.964;105.830;2023-07-20T00:35:26;25.60;53.10
44435;DHT22;30138;20.964;105.830;2023-07-20T00:40:44;25.60;57.70
44435;DHT22;30138;20.964;105.830;2023-07-20T00:45:54;25.70;59.70
44435;DHT22;30138;20.964;105.830;2023-07-20T00:51:03;25.80;61.10
44435;DHT22;30138;20.964;105.830;2023-07-20T00:56:13;26.00;62.60
44435;DHT22;30138;20.964;105.830;2023-07-20T01:01:22;26.10;63.50
44435;DHT22;30138;20.964;105.830;2023-07-20T01:06:36;26.20;64.40
44435;DHT22;30138;20.964;105.830;2023-07-20T01:11:57;26.30;65.20
44435;DHT22;30138;20.964;105.830;2023-07-20T01:17:09;26.50;65.90
44435;DHT22;30138;20.964;105.830;2023-07-20T01:22:35;26.60;69.80
44435;DHT22;30138;20.964;105.830;2023-07-20T01:34:03;26.90;81.10
44435;DHT22;30138;20.964;105.830;2023-07-20T01:39:14;27.00;82.00
44435;DHT22;30138;20.964;105.830;2023-07-20T01:44:22;27.10;86.70
44435;DHT22;30138;20.964;105.830;2023-07-20T01:49:32;27.40;87.30
44435;DHT22;30138;20.964;105.830;2023-07-20T01:54:42;27.50;86.40
44435;DHT22;30138;20.964;105.830;2023-07-20T01:59:50;27.50;85.80
44435;DHT22;30138;20.964;105.830;2023-07-20T02:05:00;27.60;83.80
44435;DHT22;30138;20.964;105.830;2023-07-20T02:10:09;27.60;83.20
44435;DHT22;30138;20.964;105.830;2023-07-20T02:15:17;27.60;83.40
44435;DHT22;30138;20.964;105.830;2023-07-20T02:20:30;27.70;82.10
44435;DHT22;30138;20.964;105.830;2023-07-20T02:25:38;27.70;81.40
44435;DHT22;30138;20.964;105.830;2023-07-20T02:30:48;27.70;81.10
44435;DHT22;30138;20.964;105.830;2023-07-20T02:36:01;27.70;80.70
44435;DHT22;30138;20.964;105.830;2023-07-20T02:41:09;27.70;80.40
44435;DHT22;30138;20.964;105.830;2023-07-20T02:46:20;27.80;80.20
44435;DHT22;30138;20.964;105.830;2023-07-20T02:51:31;27.80;80.00
44435;DHT22;30138;20.964;105.830;2023-07-20T02:56:40;27.80;79.80
44435;DHT22;30138;20.964;105.830;2023-07-20T03:01:48;27.80;79.70
44435;DHT22;30138;20.964;105.830;2023-07-20T03:06:58;27.90;79.70
44435;DHT22;30138;20.964;105.830;2023-07-20T03:12:07;27.90;79.70
44435;DHT22;30138;20.964;105.830;2023-07-20T03:17:16;27.90;79.60
44435;DHT22;30138;20.964;105.830;2023-07-20T03:22:26;27.90;79.50
44435;DHT22;30138;20.964;105.830;2023-07-20T03:27:35;28.00;79.50
44435;DHT22;30138;20.964;105.830;2023-07-20T03:32:44;27.90;79.30
44435;DHT22;30138;20.964;105.830;2023-07-20T03:37:56;28.00;80.10
44435;DHT22;30138;20.964;105.830;2023-07-20T03:43:04;28.00;79.30
44435;DHT22;30138;20.964;105.830;2023-07-20T03:48:12;28.00;79.30
44435;DHT22;30138;20.964;105.830;2023-07-20T03:53:22;28.00;79.50
44435;DHT22;30138;20.964;105.830;2023-07-20T03:58:30;28.10;79.60
44435;DHT22;30138;20.964;105.830;2023-07-20T04:03:40;28.10;79.60
44435;DHT22;30138;20.964;105.830;2023-07-20T04:08:51;28.10;79.50
44435;DHT22;30138;20.964;105.830;2023-07-20T04:14:03;28.10;79.60
44435;DHT22;30138;20.964;105.830;2023-07-20T04:19:11;28.10;79.50
44435;DHT22;30138;20.964;105.830;2023-07-20T04:24:21;28.10;79.60
44435;DHT22;30138;20.964;105.830;2023-07-20T04:29:30;28.10;79.70
44435;DHT22;30138;20.964;105.830;2023-07-20T04:34:39;28.20;79.80
44435;DHT22;30138;20.964;105.830;2023-07-20T04:39:51;28.20;79.70
44435;DHT22;30138;20.964;105.830;2023-07-20T04:45:01;28.20;79.80
44435;DHT22;30138;20.964;105.830;2023-07-20T04:50:10;28.20;80.20
44435;DHT22;30138;20.964;105.830;2023-07-20T04:55:20;28.20;80.10
44435;DHT22;30138;20.964;105.830;2023-07-20T05:00:28;28.20;80.10
44435;DHT22;30138;20.964;105.830;2023-07-20T05:05:36;28.30;80.10
44435;DHT22;30138;20.964;105.830;2023-07-20T05:10:46;28.30;80.10
44435;DHT22;30138;20.964;105.830;2023-07-20T05:15:55;28.20;80.20
44435;DHT22;30138;20.964;105.830;2023-07-20T05:21:06;28.30;80.20
44435;DHT22;30138;20.964;105.830;2023-07-20T05:26:17;28.30;80.30
44435;DHT22;30138;20.964;105.830;2023-07-20T05:31:25;28.30;80.40
44435;DHT22;30138;20.964;105.830;2023-07-20T05:36:38;28.30;80.40
44435;DHT22;30138;20.964;105.830;2023-07-20T05:41:50;28.30;80.50
44435;DHT22;30138;20.964;105.830;2023-07-20T05:46:58;28.30;80.60
44435;DHT22;30138;20.964;105.830;2023-07-20T05:52:07;28.30;80.70
44435;DHT22;30138;20.964;105.830;2023-07-20T05:57:19;28.30;80.80
44435;DHT22;30138;20.964;105.830;2023-07-20T06:02:28;28.20;73.70
44435;DHT22;30138;20.964;105.830;2023-07-20T06:07:36;28.00;73.90
44435;DHT22;30138;20.964;105.830;2023-07-20T06:12:46;27.80;66.10
44435;DHT22;30138;20.964;105.830;2023-07-20T06:17:54;27.60;70.60
44435;DHT22;30138;20.964;105.830;2023-07-20T06:23:02;27.60;70.50
44435;DHT22;30138;20.964;105.830;2023-07-20T06:28:13;27.60;72.30
44435;DHT22;30138;20.964;105.830;2023-07-20T06:33:21;27.70;73.70
44435;DHT22;30138;20.964;105.830;2023-07-20T06:38:30;27.70;74.70
44435;DHT22;30138;20.964;105.830;2023-07-20T06:43:41;27.80;75.90
44435;DHT22;30138;20.964;105.830;2023-07-20T06:48:49;27.80;76.90
44435;DHT22;30138;20.964;105.830;2023-07-20T06:53:58;27.80;77.60
44435;DHT22;30138;20.964;105.830;2023-07-20T06:59:10;27.90;78.30
44435;DHT22;30138;20.964;105.830;2023-07-20T07:04:18;28.00;78.60
44435;DHT22;30138;20.964;105.830;2023-07-20T07:09:27;28.00;79.10
44435;DHT22;30138;20.964;105.830;2023-07-20T07:14:38;28.10;80.70
44435;DHT22;30138;20.964;105.830;2023-07-20T07:19:46;28.20;80.90
44435;DHT22;30138;20.964;105.830;2023-07-20T07:24:56;28.20;80.90
44435;DHT22;30138;20.964;105.830;2023-07-20T07:30:08;28.30;82.80
44435;DHT22;30138;20.964;105.830;2023-07-20T07:35:15;28.30;84.40
44435;DHT22;30138;20.964;105.830;2023-07-20T07:40:24;28.40;84.40
44435;DHT22;30138;20.964;105.830;2023-07-20T07:45:35;28.40;84.50
44435;DHT22;30138;20.964;105.830;2023-07-20T07:50:43;28.50;84.70
44435;DHT22;30138;20.964;105.830;2023-07-20T07:55:52;28.60;84.80
44435;DHT22;30138;20.964;105.830;2023-07-20T08:01:02;28.60;84.70
44435;DHT22;30138;20.964;105.830;2023-07-20T08:06:10;28.60;84.50
44435;DHT22;30138;20.964;105.830;2023-07-20T08:11:19;28.70;84.50
44435;DHT22;30138;20.964;105.830;2023-07-20T08:16:31;28.70;84.40
44435;DHT22;30138;20.964;105.830;2023-07-20T08:21:39;28.70;84.60
44435;DHT22;30138;20.964;105.830;2023-07-20T08:26:48;28.70;85.10
44435;DHT22;30138;20.964;105.830;2023-07-20T08:31:59;28.70;85.50
44435;DHT22;30138;20.964;105.830;2023-07-20T08:37:07;28.70;85.80
44435;DHT22;30138;20.964;105.830;2023-07-20T08:42:17;28.60;77.30
44435;DHT22;30138;20.964;105.830;2023-07-20T08:47:28;28.50;73.90
44435;DHT22;30138;20.964;105.830;2023-07-20T08:52:36;28.40;69.60
44435;DHT22;30138;20.964;105.830;2023-07-20T08:57:45;28.20;69.60
44435;DHT22;30138;20.964;105.830;2023-07-20T09:02:56;28.10;65.80
44435;DHT22;30138;20.964;105.830;2023-07-20T09:08:06;27.90;67.60
44435;DHT22;30138;20.964;105.830;2023-07-20T09:13:16;27.80;63.50
44435;DHT22;30138;20.964;105.830;2023-07-20T09:18:30;27.70;66.30
44435;DHT22;30138;20.964;105.830;2023-07-20T09:23:40;27.60;61.90
44435;DHT22;30138;20.964;105.830;2023-07-20T09:28:50;27.40;67.50
44435;DHT22;30138;20.964;105.830;2023-07-20T09:34:01;27.50;70.40
44435;DHT22;30138;20.964;105.830;2023-07-20T09:39:10;27.60;72.50
44435;DHT22;30138;20.964;105.830;2023-07-20T09:44:19;27.70;74.20
44435;DHT22;30138;20.964;105.830;2023-07-20T09:49:29;27.80;75.70
44435;DHT22;30138;20.964;105.830;2023-07-20T09:54:38;27.80;76.90
44435;DHT22;30138;20.964;105.830;2023-07-20T09:59:47;27.90;78.00
44435;DHT22;30138;20.964;105.830;2023-07-20T10:04:57;28.00;79.10
44435;DHT22;30138;20.964;105.830;2023-07-20T10:10:10;28.00;80.00
44435;DHT22;30138;20.964;105.830;2023-07-20T10:15:23;28.10;80.90
44435;DHT22;30138;20.964;105.830;2023-07-20T10:20:36;28.10;81.80
44435;DHT22;30138;20.964;105.830;2023-07-20T10:25:47;28.20;82.60
44435;DHT22;30138;20.964;105.830;2023-07-20T10:30:56;28.20;83.20
44435;DHT22;30138;20.964;105.830;2023-07-20T10:36:06;28.30;83.90
44435;DHT22;30138;20.964;105.830;2023-07-20T10:41:20;28.30;84.80
44435;DHT22;30138;20.964;105.830;2023-07-20T10:46:43;28.30;85.10
44435;DHT22;30138;20.964;105.830;2023-07-20T10:51:58;28.30;86.20
44435;DHT22;30138;20.964;105.830;2023-07-20T10:57:24;28.30;86.80
44435;DHT22;30138;20.964;105.830;2023-07-20T11:02:46;28.40;87.30
44435;DHT22;30138;20.964;105.830;2023-07-20T11:07:56;28.40;87.70
44435;DHT22;30138;20.964;105.830;2023-07-20T11:13:23;28.50;88.40
44435;DHT22;30138;20.964;105.830;2023-07-20T11:18:33;28.50;88.50
44435;DHT22;30138;20.964;105.830;2023-07-20T11:23:45;28.60;88.90
44435;DHT22;30138;20.964;105.830;2023-07-20T11:28:55;28.60;88.00
44435;DHT22;30138;20.964;105.830;2023-07-20T11:34:03;28.70;88.20
44435;DHT22;30138;20.964;105.830;2023-07-20T11:39:16;28.70;89.50
44435;DHT22;30138;20.964;105.830;2023-07-20T11:44:26;28.60;90.90
44435;DHT22;30138;20.964;105.830;2023-07-20T11:49:37;28.60;91.80
44435;DHT22;30138;20.964;105.830;2023-07-20T11:54:48;28.60;93.30
44435;DHT22;30138;20.964;105.830;2023-07-20T11:59:57;28.80;97.70
44435;DHT22;30138;20.964;105.830;2023-07-20T12:05:12;28.90;99.10
44435;DHT22;30138;20.964;105.830;2023-07-20T12:10:28;29.00;99.70
44435;DHT22;30138;20.964;105.830;2023-07-20T12:15:36;29.00;99.90
44435;DHT22;30138;20.964;105.830;2023-07-20T12:20:45;29.10;99.90
44435;DHT22;30138;20.964;105.830;2023-07-20T12:25:57;29.20;99.90
44435;DHT22;30138;20.964;105.830;2023-07-20T12:31:06;29.20;99.90
44435;DHT22;30138;20.964;105.830;2023-07-20T12:36:15;29.20;99.90
44435;DHT22;30138;20.964;105.830;2023-07-20T12:41:28;29.20;99.90
44435;DHT22;30138;20.964;105.830;2023-07-20T12:46:36;29.30;99.90
44435;DHT22;30138;20.964;105.830;2023-07-20T12:51:48;29.30;99.90
44435;DHT22;30138;20.964;105.830;2023-07-20T12:57:00;29.30;99.90
44435;DHT22;30138;20.964;105.830;2023-07-20T13:02:08;29.40;99.90
44435;DHT22;30138;20.964;105.830;2023-07-20T13:07:30;29.30;99.90
44435;DHT22;30138;20.964;105.830;2023-07-20T13:12:46;29.40;99.90
44435;DHT22;30138;20.964;105.830;2023-07-20T13:17:55;29.40;99.90
44435;DHT22;30138;20.964;105.830;2023-07-20T13:23:08;29.40;99.90
44435;DHT22;30138;20.964;105.830;2023-07-20T13:28:22;29.40;99.90
44435;DHT22;30138;20.964;105.830;2023-07-20T13:33:32;29.40;99.90
44435;DHT22;30138;20.964;105.830;2023-07-20T13:38:44;29.40;99.90
44435;DHT22;30138;20.964;105.830;2023-07-20T13:44:06;29.40;99.90
44435;DHT22;30138;20.964;105.830;2023-07-20T13:49:15;29.40;99.90
44435;DHT22;30138;20.964;105.830;2023-07-20T13:54:24;29.40;99.90
44435;DHT22;30138;20.964;105.830;2023-07-20T13:59:35;29.40;99.90
44435;DHT22;30138;20.964;105.830;2023-07-20T14:04:45;29.40;99.90
44435;DHT22;30138;20.964;105.830;2023-07-20T14:09:54;29.40;99.90
44435;DHT22;30138;20.964;105.830;2023-07-20T14:15:07;29.40;99.90
44435;DHT22;30138;20.964;105.830;2023-07-20T14:20:16;29.40;99.90
44435;DHT22;30138;20.964;105.830;2023-07-20T14:25:27;29.40;99.90
44435;DHT22;30138;20.964;105.830;2023-07-20T14:30:40;29.50;99.90
44435;DHT22;30138;20.964;105.830;2023-07-20T14:35:52;29.40;99.90
44435;DHT22;30138;20.964;105.830;2023-07-20T14:41:01;29.40;99.90
44435;DHT22;30138;20.964;105.830;2023-07-20T14:46:15;29.40;99.90
44435;DHT22;30138;20.964;105.830;2023-07-20T14:51:25;29.40;99.90
44435;DHT22;30138;20.964;105.830;2023-07-20T14:56:38;29.40;99.90
44435;DHT22;30138;20.964;105.830;2023-07-20T15:01:52;29.50;99.90
44435;DHT22;30138;20.964;105.830;2023-07-20T15:07:00;29.50;99.90
44435;DHT22;30138;20.964;105.830;2023-07-20T15:12:10;29.50;99.90
44435;DHT22;30138;20.964;105.830;2023-07-20T15:17:21;29.50;99.90
44435;DHT22;30138;20.964;105.830;2023-07-20T15:22:29;29.50;99.90
44435;DHT22;30138;20.964;105.830;2023-07-20T15:27:41;29.50;99.90
44435;DHT22;30138;20.964;105.830;2023-07-20T15:32:54;29.50;99.90
44435;DHT22;30138;20.964;105.830;2023-07-20T15:38:06;29.50;99.90
44435;DHT22;30138;20.964;105.830;2023-07-20T15:43:15;29.50;99.90
44435;DHT22;30138;20.964;105.830;2023-07-20T15:48:25;29.50;99.90
44435;DHT22;30138;20.964;105.830;2023-07-20T15:53:34;29.50;99.90
44435;DHT22;30138;20.964;105.830;2023-07-20T15:58:42;29.50;99.90
44435;DHT22;30138;20.964;105.830;2023-07-20T16:03:54;29.50;99.90
44435;DHT22;30138;20.964;105.830;2023-07-20T16:09:04;29.50;99.90
44435;DHT22;30138;20.964;105.830;2023-07-20T16:14:13;29.50;99.90
44435;DHT22;30138;20.964;105.830;2023-07-20T16:19:25;29.50;99.90
44435;DHT22;30138;20.964;105.830;2023-07-20T16:24:39;29.50;99.90
44435;DHT22;30138;20.964;105.830;2023-07-20T16:29:48;29.50;99.90
44435;DHT22;30138;20.964;105.830;2023-07-20T16:35:00;29.50;99.90
44435;DHT22;30138;20.964;105.830;2023-07-20T16:40:08;29.50;99.90
44435;DHT22;30138;20.964;105.830;2023-07-20T16:45:19;29.50;99.90
44435;DHT22;30138;20.964;105.830;2023-07-20T16:50:29;29.50;99.90
44435;DHT22;30138;20.964;105.830;2023-07-20T16:55:39;29.50;99.90
44435;DHT22;30138;20.964;105.830;2023-07-20T17:01:01;29.50;99.90
44435;DHT22;30138;20.964;105.830;2023-07-20T17:06:14;29.50;99.90
44435;DHT22;30138;20.964;105.830;2023-07-20T17:11:23;29.50;99.90
44435;DHT22;30138;20.964;105.830;2023-07-20T17:16:32;29.50;99.90
44435;DHT22;30138;20.964;105.830;2023-07-20T17:21:43;29.50;99.90
44435;DHT22;30138;20.964;105.830;2023-07-20T17:26:52;29.50;99.90
44435;DHT22;30138;20.964;105.830;2023-07-20T17:32:01;29.50;99.90
44435;DHT22;30138;20.964;105.830;2023-07-20T17:37:13;29.50;99.90
44435;DHT22;30138;20.964;105.830;2023-07-20T17:42:24;29.50;99.90
44435;DHT22;30138;20.964;105.830;2023-07-20T17:47:32;29.40;99.90
44435;DHT22;30138;20.964;105.830;2023-07-20T17:52:42;29.40;99.90
44435;DHT22;30138;20.964;105.830;2023-07-20T17:57:51;29.40;99.90
44435;DHT22;30138;20.964;105.830;2023-07-20T18:03:00;29.40;99.90
44435;DHT22;30138;20.964;105.830;2023-07-20T18:08:10;29.40;99.90
44435;DHT22;30138;20.964;105.830;2023-07-20T18:13:20;29.50;99.90
44435;DHT22;30138;20.964;105.830;2023-07-20T18:18:28;29.50;99.90
44435;DHT22;30138;20.964;105.830;2023-07-20T18:23:38;29.40;99.90
44435;DHT22;30138;20.964;105.830;2023-07-20T18:28:46;29.40;99.90
44435;DHT22;30138;20.964;105.830;2023-07-20T18:33:54;29.40;99.90
44435;DHT22;30138;20.964;105.830;2023-07-20T18:39:06;29.40;99.90
44435;DHT22;30138;20.964;105.830;2023-07-20T18:44:13;29.40;99.90
44435;DHT22;30138;20.964;105.830;2023-07-20T18:49:21;29.40;99.90
44435;DHT22;30138;20.964;105.830;2023-07-20T18:54:34;29.40;99.90
44435;DHT22;30138;20.964;105.830;2023-07-20T18:59:42;29.40;99.90
44435;DHT22;30138;20.964;105.830;2023-07-20T19:04:51;29.40;99.90
44435;DHT22;30138;20.964;105.830;2023-07-20T19:10:04;29.40;99.90
44435;DHT22;30138;20.964;105.830;2023-07-20T19:15:13;29.40;99.90
44435;DHT22;30138;20.964;105.830;2023-07-20T19:20:21;29.40;99.90
44435;DHT22;30138;20.964;105.830;2023-07-20T19:25:32;29.40;99.90
44435;DHT22;30138;20.964;105.830;2023-07-20T19:30:41;29.40;99.90
44435;DHT22;30138;20.964;105.830;2023-07-20T19:35:49;29.40;99.90
44435;DHT22;30138;20.964;105.830;2023-07-20T19:40:58;29.40;99.90
44435;DHT22;30138;20.964;105.830;2023-07-20T19:46:09;29.40;99.90
44435;DHT22;30138;20.964;105.830;2023-07-20T19:51:18;29.40;99.90
44435;DHT22;30138;20.964;105.830;2023-07-20T19:56:28;29.40;99.90
44435;DHT22;30138;20.964;105.830;2023-07-20T20:01:38;29.40;99.90
44435;DHT22;30138;20.964;105.830;2023-07-20T20:06:46;29.40;99.90
44435;DHT22;30138;20.964;105.830;2023-07-20T20:12:00;29.40;99.90
44435;DHT22;30138;20.964;105.830;2023-07-20T20:17:08;29.40;99.90
44435;DHT22;30138;20.964;105.830;2023-07-20T20:22:16;29.40;99.90
44435;DHT22;30138;20.964;105.830;2023-07-20T20:27:25;29.40;99.90
44435;DHT22;30138;20.964;105.830;2023-07-20T20:32:33;29.40;99.90
44435;DHT22;30138;20.964;105.830;2023-07-20T20:37:45;29.40;99.90
44435;DHT22;30138;20.964;105.830;2023-07-20T20:42:56;29.40;99.90
44435;DHT22;30138;20.964;105.830;2023-07-20T20:48:04;29.40;99.90
44435;DHT22;30138;20.964;105.830;2023-07-20T20:53:13;29.40;99.90
44435;DHT22;30138;20.964;105.830;2023-07-20T20:58:24;29.30;99.90
44435;DHT22;30138;20.964;105.830;2023-07-20T21:03:32;29.40;99.90
44435;DHT22;30138;20.964;105.830;2023-07-20T21:08:40;29.40;99.90
44435;DHT22;30138;20.964;105.830;2023-07-20T21:13:50;29.40;99.90
44435;DHT22;30138;20.964;105.830;2023-07-20T21:18:58;29.40;99.90
44435;DHT22;30138;20.964;105.830;2023-07-20T21:24:07;29.30;99.90
44435;DHT22;30138;20.964;105.830;2023-07-20T21:29:17;29.40;99.90
44435;DHT22;30138;20.964;105.830;2023-07-20T21:34:26;29.40;99.90
44435;DHT22;30138;20.964;105.830;2023-07-20T21:39:34;29.40;99.90
44435;DHT22;30138;20.964;105.830;2023-07-20T21:44:44;29.30;99.90
44435;DHT22;30138;20.964;105.830;2023-07-20T21:49:52;29.40;99.90
44435;DHT22;30138;20.964;105.830;2023-07-20T21:55:01;29.40;99.90
44435;DHT22;30138;20.964;105.830;2023-07-20T22:00:13;29.40;99.90
44435;DHT22;30138;20.964;105.830;2023-07-20T22:05:23;29.40;99.90
44435;DHT22;30138;20.964;105.830;2023-07-20T22:10:32;29.40;99.90
44435;DHT22;30138;20.964;105.830;2023-07-20T22:15:42;29.30;99.90
44435;DHT22;30138;20.964;105.830;2023-07-20T22:20:49;29.30;99.90
44435;DHT22;30138;20.964;105.830;2023-07-20T22:25:57;29.30;99.90
44435;DHT22;30138;20.964;105.830;2023-07-20T22:31:09;29.30;99.90
44435;DHT22;30138;20.964;105.830;2023-07-20T22:36:17;29.30;99.90
44435;DHT22;30138;20.964;105.830;2023-07-20T22:41:25;29.30;99.90
44435;DHT22;30138;20.964;105.830;2023-07-20T22:46:37;29.30;99.90
44435;DHT22;30138;20.964;105.830;2023-07-20T22:51:45;29.30;99.90
44435;DHT22;30138;20.964;105.830;2023-07-20T22:56:53;29.30;99.90
44435;DHT22;30138;20.964;105.830;2023-07-20T23:02:03;29.30;99.90
44435;DHT22;30138;20.964;105.830;2023-07-20T23:07:13;29.30;99.90
44435;DHT22;30138;20.964;105.830;2023-07-20T23:12:21;29.30;99.90
44435;DHT22;30138;20.964;105.830;2023-07-20T23:17:30;29.30;99.90
44435;DHT22;30138;20.964;105.830;2023-07-20T23:22:40;29.30;99.90
44435;DHT22;30138;20.964;105.830;2023-07-20T23:27:48;29.30;99.90
44435;DHT22;30138;20.964;105.830;2023-07-20T23:33:01;29.30;99.90
44435;DHT22;30138;20.964;105.830;2023-07-20T23:38:09;29.30;99.90
44435;DHT22;30138;20.964;105.830;2023-07-20T23:43:17;29.30;99.90
44435;DHT22;30138;20.964;105.830;2023-07-20T23:48:29;29.30;99.90
44435;DHT22;30138;20.964;105.830;2023-07-20T23:53:44;29.40;99.90
44435;DHT22;30138;20.964;105.830;2023-07-20T23:58:54;29.30;99.90
